< < Back
Terminal Aerodrome Forecast


Current Version              Previous Versions:   1  2  3  4  5  6  7  8  9  

Terminal Aerodrome Forecast

179
FTUS42 KCHS 021100
TAFSAV
TAF
KSAV 021131Z 0212/0312 VRB03KT P6SM FEW300
     FM021500 10007KT P6SM SCT050
     FM030000 12003KT P6SM FEW250
     FM030900 VRB02KT 6SM BR SCT015=



Latest METAR

641
SAUS80 KWBC 021600 RRB
MTRSAV
METAR KSAV 021553Z 06003KT 10SM SCT032 28/18 A3010 RMK AO2 SLP192
T02830183


USA.gov is the U.S. government's official web portal to all federal, state and local government web resources and services.